sensor_id;sensor_type;location;lat;lon;timestamp;pressure;altitude;pressure_sealevel;temperature;humidity
64115;BME280;62188;35.640;139.748;2023-07-22T00:00:19;101758.44;;;28.61;41.95
64115;BME280;62188;35.640;139.748;2023-07-22T00:02:44;101762.67;;;28.38;42.62
64115;BME280;62188;35.640;139.748;2023-07-22T00:05:10;101761.29;;;28.15;42.27
64115;BME280;62188;35.640;139.748;2023-07-22T00:07:35;101758.76;;;28.44;42.19
64115;BME280;62188;35.640;139.748;2023-07-22T00:10:00;101760.69;;;28.29;42.65
64115;BME280;62188;35.640;139.748;2023-07-22T00:12:26;101764.34;;;27.93;42.72
64115;BME280;62188;35.640;139.748;2023-07-22T00:14:51;101768.37;;;27.96;43.01
64115;BME280;62188;35.640;139.748;2023-07-22T00:17:16;101767.07;;;27.91;43.49
64115;BME280;62188;35.640;139.748;2023-07-22T00:19:42;101764.05;;;27.94;43.15
64115;BME280;62188;35.640;139.748;2023-07-22T00:22:07;101763.67;;;28.42;42.54
64115;BME280;62188;35.640;139.748;2023-07-22T00:24:32;101764.85;;;28.18;42.84
64115;BME280;62188;35.640;139.748;2023-07-22T00:26:57;101766.98;;;27.78;43.17
64115;BME280;62188;35.640;139.748;2023-07-22T00:29:22;101768.79;;;27.28;43.96
64115;BME280;62188;35.640;139.748;2023-07-22T00:31:48;101771.91;;;27.56;44.03
64115;BME280;62188;35.640;139.748;2023-07-22T00:34:13;101773.59;;;27.60;43.36
64115;BME280;62188;35.640;139.748;2023-07-22T00:36:38;101773.05;;;27.76;43.64
64115;BME280;62188;35.640;139.748;2023-07-22T00:39:04;101772.05;;;27.81;43.36
64115;BME280;62188;35.640;139.748;2023-07-22T00:41:29;101766.29;;;28.07;42.49
64115;BME280;62188;35.640;139.748;2023-07-22T00:43:54;101768.63;;;28.10;42.61
64115;BME280;62188;35.640;139.748;2023-07-22T00:46:20;101770.81;;;28.09;42.35
64115;BME280;62188;35.640;139.748;2023-07-22T00:48:46;101772.31;;;28.10;42.80
64115;BME280;62188;35.640;139.748;2023-07-22T00:51:10;101776.56;;;27.88;44.24
64115;BME280;62188;35.640;139.748;2023-07-22T00:53:36;101770.86;;;27.91;43.54
64115;BME280;62188;35.640;139.748;2023-07-22T00:56:01;101772.94;;;27.86;43.48
64115;BME280;62188;35.640;139.748;2023-07-22T00:58:26;101773.29;;;27.86;44.02
64115;BME280;62188;35.640;139.748;2023-07-22T01:00:52;101776.72;;;28.01;44.28
64115;BME280;62188;35.640;139.748;2023-07-22T01:03:17;101773.30;;;28.19;44.66
64115;BME280;62188;35.640;139.748;2023-07-22T01:05:42;101774.10;;;27.57;45.06
64115;BME280;62188;35.640;139.748;2023-07-22T01:08:08;101773.59;;;27.86;44.39
64115;BME280;62188;35.640;139.748;2023-07-22T01:10:33;101772.79;;;28.18;44.46
64115;BME280;62188;35.640;139.748;2023-07-22T01:12:58;101771.55;;;28.43;44.57
64115;BME280;62188;35.640;139.748;2023-07-22T01:15:23;101765.79;;;28.55;44.70
64115;BME280;62188;35.640;139.748;2023-07-22T01:17:49;101760.08;;;28.71;44.11
64115;BME280;62188;35.640;139.748;2023-07-22T01:20:14;101757.38;;;29.06;43.06
64115;BME280;62188;35.640;139.748;2023-07-22T01:22:40;101758.15;;;28.46;44.07
64115;BME280;62188;35.640;139.748;2023-07-22T01:25:05;101752.95;;;29.00;42.66
64115;BME280;62188;35.640;139.748;2023-07-22T01:27:30;101751.17;;;28.89;43.43
64115;BME280;62188;35.640;139.748;2023-07-22T01:29:56;101747.10;;;28.24;44.13
64115;BME280;62188;35.640;139.748;2023-07-22T01:32:21;101741.87;;;28.50;44.01
64115;BME280;62188;35.640;139.748;2023-07-22T01:34:46;101745.07;;;28.98;42.86
64115;BME280;62188;35.640;139.748;2023-07-22T01:37:12;101744.02;;;29.32;42.94
64115;BME280;62188;35.640;139.748;2023-07-22T01:39:37;101739.88;;;29.12;42.80
64115;BME280;62188;35.640;139.748;2023-07-22T01:42:03;101739.87;;;29.03;42.77
64115;BME280;62188;35.640;139.748;2023-07-22T01:44:27;101734.40;;;29.23;42.63
64115;BME280;62188;35.640;139.748;2023-07-22T01:46:52;101739.41;;;29.50;43.04
64115;BME280;62188;35.640;139.748;2023-07-22T01:49:18;101734.76;;;28.85;43.03
64115;BME280;62188;35.640;139.748;2023-07-22T01:51:43;101736.55;;;28.38;43.44
64115;BME280;62188;35.640;139.748;2023-07-22T01:54:09;101735.70;;;29.25;42.42
64115;BME280;62188;35.640;139.748;2023-07-22T01:56:34;101736.15;;;28.89;42.30
64115;BME280;62188;35.640;139.748;2023-07-22T01:58:59;101732.75;;;28.63;42.72
64115;BME280;62188;35.640;139.748;2023-07-22T02:01:25;101730.14;;;29.06;43.27
64115;BME280;62188;35.640;139.748;2023-07-22T02:03:50;101726.12;;;28.49;42.40
64115;BME280;62188;35.640;139.748;2023-07-22T02:06:15;101720.67;;;28.49;42.87
64115;BME280;62188;35.640;139.748;2023-07-22T02:08:41;101717.05;;;28.60;43.12
64115;BME280;62188;35.640;139.748;2023-07-22T02:11:07;101720.77;;;28.08;44.20
64115;BME280;62188;35.640;139.748;2023-07-22T02:13:32;101720.18;;;27.97;44.02
64115;BME280;62188;35.640;139.748;2023-07-22T02:15:57;101717.77;;;28.18;43.14
64115;BME280;62188;35.640;139.748;2023-07-22T02:18:22;101714.81;;;28.54;43.18
64115;BME280;62188;35.640;139.748;2023-07-22T02:20:47;101716.57;;;28.53;43.08
64115;BME280;62188;35.640;139.748;2023-07-22T02:23:13;101711.47;;;28.26;43.57
64115;BME280;62188;35.640;139.748;2023-07-22T02:25:38;101707.03;;;28.68;43.12
64115;BME280;62188;35.640;139.748;2023-07-22T02:28:03;101701.11;;;28.30;43.37
64115;BME280;62188;35.640;139.748;2023-07-22T02:30:29;101700.21;;;28.65;43.44
64115;BME280;62188;35.640;139.748;2023-07-22T02:32:54;101700.61;;;29.57;42.66
64115;BME280;62188;35.640;139.748;2023-07-22T02:35:19;101694.12;;;29.23;43.01
64115;BME280;62188;35.640;139.748;2023-07-22T02:37:44;101691.49;;;29.10;41.46
64115;BME280;62188;35.640;139.748;2023-07-22T02:40:10;101695.88;;;28.72;42.34
64115;BME280;62188;35.640;139.748;2023-07-22T02:42:35;101697.45;;;28.74;42.04
64115;BME280;62188;35.640;139.748;2023-07-22T02:45:00;101688.94;;;29.06;42.45
64115;BME280;62188;35.640;139.748;2023-07-22T02:47:25;101691.41;;;28.83;41.98
64115;BME280;62188;35.640;139.748;2023-07-22T02:49:51;101690.99;;;28.54;42.61
64115;BME280;62188;35.640;139.748;2023-07-22T02:52:16;101690.38;;;28.72;42.01
64115;BME280;62188;35.640;139.748;2023-07-22T02:54:41;101692.03;;;28.71;42.51
64115;BME280;62188;35.640;139.748;2023-07-22T02:57:07;101684.54;;;28.46;42.75
64115;BME280;62188;35.640;139.748;2023-07-22T02:59:32;101686.34;;;28.90;42.37
64115;BME280;62188;35.640;139.748;2023-07-22T03:01:57;101685.40;;;29.01;42.24
64115;BME280;62188;35.640;139.748;2023-07-22T03:04:22;101687.02;;;28.86;42.44
64115;BME280;62188;35.640;139.748;2023-07-22T03:06:48;101677.18;;;29.03;42.62
64115;BME280;62188;35.640;139.748;2023-07-22T03:09:13;101672.41;;;29.09;41.65
64115;BME280;62188;35.640;139.748;2023-07-22T03:11:38;101673.56;;;29.59;41.27
64115;BME280;62188;35.640;139.748;2023-07-22T03:14:03;101676.66;;;29.81;39.89
64115;BME280;62188;35.640;139.748;2023-07-22T03:16:29;101671.82;;;29.44;40.35
64115;BME280;62188;35.640;139.748;2023-07-22T03:18:54;101667.89;;;29.01;41.11
64115;BME280;62188;35.640;139.748;2023-07-22T03:21:20;101667.94;;;29.78;40.87
64115;BME280;62188;35.640;139.748;2023-07-22T03:23:45;101659.71;;;29.88;39.99
64115;BME280;62188;35.640;139.748;2023-07-22T03:26:10;101657.77;;;29.59;40.16
64115;BME280;62188;35.640;139.748;2023-07-22T03:28:35;101653.68;;;29.83;39.80
64115;BME280;62188;35.640;139.748;2023-07-22T03:31:00;101649.54;;;29.26;40.11
64115;BME280;62188;35.640;139.748;2023-07-22T03:33:26;101650.31;;;28.90;41.00
64115;BME280;62188;35.640;139.748;2023-07-22T03:35:51;101647.85;;;29.08;41.33
64115;BME280;62188;35.640;139.748;2023-07-22T03:38:17;101649.27;;;29.58;40.22
64115;BME280;62188;35.640;139.748;2023-07-22T03:40:42;101642.45;;;29.56;39.78
64115;BME280;62188;35.640;139.748;2023-07-22T03:43:07;101639.98;;;29.18;40.60
64115;BME280;62188;35.640;139.748;2023-07-22T03:45:32;101639.57;;;29.86;39.78
64115;BME280;62188;35.640;139.748;2023-07-22T03:47:59;101637.15;;;29.88;39.72
64115;BME280;62188;35.640;139.748;2023-07-22T03:50:23;101633.33;;;29.88;39.59
64115;BME280;62188;35.640;139.748;2023-07-22T03:52:48;101631.75;;;30.08;39.22
64115;BME280;62188;35.640;139.748;2023-07-22T03:55:13;101627.41;;;29.94;39.31
64115;BME280;62188;35.640;139.748;2023-07-22T03:57:39;101624.60;;;30.37;39.09
64115;BME280;62188;35.640;139.748;2023-07-22T04:00:05;101625.16;;;30.34;38.56
64115;BME280;62188;35.640;139.748;2023-07-22T04:02:29;101628.20;;;30.51;38.57
64115;BME280;62188;35.640;139.748;2023-07-22T04:04:56;101627.09;;;30.53;38.41
64115;BME280;62188;35.640;139.748;2023-07-22T04:07:20;101620.19;;;30.41;38.42
64115;BME280;62188;35.640;139.748;2023-07-22T04:09:46;101621.73;;;29.67;38.85
64115;BME280;62188;35.640;139.748;2023-07-22T04:12:10;101623.45;;;30.22;38.44
64115;BME280;62188;35.640;139.748;2023-07-22T04:14:36;101627.18;;;30.36;37.94
64115;BME280;62188;35.640;139.748;2023-07-22T04:17:00;101624.70;;;30.88;37.72
64115;BME280;62188;35.640;139.748;2023-07-22T04:19:26;101618.82;;;29.97;38.03
64115;BME280;62188;35.640;139.748;2023-07-22T04:21:52;101616.19;;;30.31;38.05
64115;BME280;62188;35.640;139.748;2023-07-22T04:24:17;101615.52;;;30.32;38.46
64115;BME280;62188;35.640;139.748;2023-07-22T04:26:44;101613.58;;;30.26;38.70
64115;BME280;62188;35.640;139.748;2023-07-22T04:29:07;101618.64;;;30.15;38.58
64115;BME280;62188;35.640;139.748;2023-07-22T04:31:35;101608.82;;;29.30;39.38
64115;BME280;62188;35.640;139.748;2023-07-22T04:33:59;101599.42;;;29.81;39.27
64115;BME280;62188;35.640;139.748;2023-07-22T04:36:23;101599.15;;;29.62;38.93
64115;BME280;62188;35.640;139.748;2023-07-22T04:38:48;101592.75;;;30.22;38.32
64115;BME280;62188;35.640;139.748;2023-07-22T04:41:14;101588.26;;;30.15;38.07
64115;BME280;62188;35.640;139.748;2023-07-22T04:43:39;101586.39;;;29.87;38.05
64115;BME280;62188;35.640;139.748;2023-07-22T04:46:04;101582.36;;;29.72;38.85
64115;BME280;62188;35.640;139.748;2023-07-22T04:48:31;101582.45;;;29.52;38.83
64115;BME280;62188;35.640;139.748;2023-07-22T04:50:55;101580.60;;;29.89;38.33
64115;BME280;62188;35.640;139.748;2023-07-22T04:53:20;101579.13;;;29.81;39.30
64115;BME280;62188;35.640;139.748;2023-07-22T04:55:45;101589.85;;;29.33;39.66
64115;BME280;62188;35.640;139.748;2023-07-22T04:58:10;101584.69;;;29.40;39.76
64115;BME280;62188;35.640;139.748;2023-07-22T05:00:36;101577.96;;;30.01;39.06
64115;BME280;62188;35.640;139.748;2023-07-22T05:03:01;101574.23;;;29.52;39.28
64115;BME280;62188;35.640;139.748;2023-07-22T05:05:27;101571.80;;;29.57;39.60
64115;BME280;62188;35.640;139.748;2023-07-22T05:07:52;101571.12;;;30.05;38.95
64115;BME280;62188;35.640;139.748;2023-07-22T05:10:17;101575.86;;;29.85;39.23
64115;BME280;62188;35.640;139.748;2023-07-22T05:12:43;101576.83;;;29.61;39.76
64115;BME280;62188;35.640;139.748;2023-07-22T05:15:10;101573.46;;;29.07;39.34
64115;BME280;62188;35.640;139.748;2023-07-22T05:17:33;101571.72;;;29.43;39.93
64115;BME280;62188;35.640;139.748;2023-07-22T05:19:58;101569.12;;;29.87;39.20
64115;BME280;62188;35.640;139.748;2023-07-22T05:22:23;101568.90;;;29.68;39.30
64115;BME280;62188;35.640;139.748;2023-07-22T05:24:49;101575.44;;;28.82;40.60
64115;BME280;62188;35.640;139.748;2023-07-22T05:27:14;101569.48;;;29.13;40.75
64115;BME280;62188;35.640;139.748;2023-07-22T05:29:39;101569.98;;;29.62;40.38
64115;BME280;62188;35.640;139.748;2023-07-22T05:32:05;101568.88;;;29.31;40.92
64115;BME280;62188;35.640;139.748;2023-07-22T05:34:30;101567.46;;;29.61;40.28
64115;BME280;62188;35.640;139.748;2023-07-22T05:36:55;101565.93;;;29.51;40.98
64115;BME280;62188;35.640;139.748;2023-07-22T05:39:21;101567.30;;;29.18;41.87
64115;BME280;62188;35.640;139.748;2023-07-22T05:41:46;101568.63;;;29.61;40.79
64115;BME280;62188;35.640;139.748;2023-07-22T05:44:11;101565.53;;;29.17;42.53
64115;BME280;62188;35.640;139.748;2023-07-22T05:46:36;101564.92;;;28.94;43.08
64115;BME280;62188;35.640;139.748;2023-07-22T05:49:02;101565.03;;;28.10;45.30
64115;BME280;62188;35.640;139.748;2023-07-22T05:51:28;101560.19;;;28.05;45.74
64115;BME280;62188;35.640;139.748;2023-07-22T05:53:53;101561.54;;;27.95;46.23
64115;BME280;62188;35.640;139.748;2023-07-22T05:56:18;101559.91;;;28.49;45.27
64115;BME280;62188;35.640;139.748;2023-07-22T05:58:43;101571.98;;;28.19;45.96
64115;BME280;62188;35.640;139.748;2023-07-22T06:01:09;101559.10;;;28.74;45.75
64115;BME280;62188;35.640;139.748;2023-07-22T06:03:34;101565.09;;;28.85;45.28
64115;BME280;62188;35.640;139.748;2023-07-22T06:05:59;101561.10;;;27.90;46.57
64115;BME280;62188;35.640;139.748;2023-07-22T06:08:25;101567.76;;;27.50;46.92
64115;BME280;62188;35.640;139.748;2023-07-22T06:10:50;101565.30;;;27.93;45.90
64115;BME280;62188;35.640;139.748;2023-07-22T06:13:16;101570.46;;;28.05;46.27
64115;BME280;62188;35.640;139.748;2023-07-22T06:15:42;101569.30;;;28.27;46.37
64115;BME280;62188;35.640;139.748;2023-07-22T06:18:07;101572.62;;;28.20;46.44
64115;BME280;62188;35.640;139.748;2023-07-22T06:20:33;101571.89;;;27.69;46.86
64115;BME280;62188;35.640;139.748;2023-07-22T06:22:58;101568.89;;;28.42;46.32
64115;BME280;62188;35.640;139.748;2023-07-22T06:25:23;101574.14;;;28.63;45.12
64115;BME280;62188;35.640;139.748;2023-07-22T06:27:48;101575.07;;;27.69;47.12
64115;BME280;62188;35.640;139.748;2023-07-22T06:30:14;101579.36;;;28.20;46.45
64115;BME280;62188;35.640;139.748;2023-07-22T06:32:39;101570.55;;;28.29;46.46
64115;BME280;62188;35.640;139.748;2023-07-22T06:35:05;101564.98;;;29.06;44.75
64115;BME280;62188;35.640;139.748;2023-07-22T06:37:29;101565.27;;;28.86;44.68
64115;BME280;62188;35.640;139.748;2023-07-22T06:39:54;101567.61;;;28.24;45.65
64115;BME280;62188;35.640;139.748;2023-07-22T06:42:20;101567.19;;;28.33;44.57
64115;BME280;62188;35.640;139.748;2023-07-22T06:44:46;101562.98;;;28.47;45.42
64115;BME280;62188;35.640;139.748;2023-07-22T06:47:11;101563.52;;;28.67;44.80
64115;BME280;62188;35.640;139.748;2023-07-22T06:49:36;101578.19;;;28.21;45.33
64115;BME280;62188;35.640;139.748;2023-07-22T06:52:02;101577.88;;;28.99;44.71
64115;BME280;62188;35.640;139.748;2023-07-22T06:54:27;101577.97;;;28.37;45.48
64115;BME280;62188;35.640;139.748;2023-07-22T06:56:52;101584.52;;;27.25;46.35
64115;BME280;62188;35.640;139.748;2023-07-22T06:59:17;101575.92;;;27.64;46.70
64115;BME280;62188;35.640;139.748;2023-07-22T07:01:42;101582.22;;;28.04;45.93
64115;BME280;62188;35.640;139.748;2023-07-22T07:04:08;101584.24;;;27.68;46.95
64115;BME280;62188;35.640;139.748;2023-07-22T07:06:34;101581.80;;;28.44;45.63
64115;BME280;62188;35.640;139.748;2023-07-22T07:09:00;101584.05;;;28.12;46.19
64115;BME280;62188;35.640;139.748;2023-07-22T07:11:24;101582.34;;;28.90;45.86
64115;BME280;62188;35.640;139.748;2023-07-22T07:13:49;101583.38;;;28.53;45.52
64115;BME280;62188;35.640;139.748;2023-07-22T07:16:25;101577.57;;;28.85;44.65
64115;BME280;62188;35.640;139.748;2023-07-22T07:18:40;101571.76;;;28.70;44.52
64115;BME280;62188;35.640;139.748;2023-07-22T07:21:05;101576.15;;;27.89;44.86
64115;BME280;62188;35.640;139.748;2023-07-22T07:23:30;101576.72;;;28.23;45.52
64115;BME280;62188;35.640;139.748;2023-07-22T07:25:55;101574.26;;;28.34;44.59
64115;BME280;62188;35.640;139.748;2023-07-22T07:28:20;101574.36;;;28.16;45.10
64115;BME280;62188;35.640;139.748;2023-07-22T07:30:46;101580.86;;;28.58;44.87
64115;BME280;62188;35.640;139.748;2023-07-22T07:33:11;101578.55;;;28.26;45.31
64115;BME280;62188;35.640;139.748;2023-07-22T07:35:36;101578.59;;;27.25;46.17
64115;BME280;62188;35.640;139.748;2023-07-22T07:38:02;101582.00;;;27.81;46.46
64115;BME280;62188;35.640;139.748;2023-07-22T07:40:27;101575.71;;;28.14;45.97
64115;BME280;62188;35.640;139.748;2023-07-22T07:42:52;101573.88;;;28.59;45.20
64115;BME280;62188;35.640;139.748;2023-07-22T07:45:18;101569.02;;;28.25;45.97
64115;BME280;62188;35.640;139.748;2023-07-22T07:47:43;101568.67;;;28.22;46.46
64115;BME280;62188;35.640;139.748;2023-07-22T07:50:09;101568.35;;;27.71;47.26
64115;BME280;62188;35.640;139.748;2023-07-22T07:52:34;101566.46;;;27.35;47.77
64115;BME280;62188;35.640;139.748;2023-07-22T07:54:59;101559.20;;;28.00;46.64
64115;BME280;62188;35.640;139.748;2023-07-22T07:57:24;101560.49;;;28.22;46.95
64115;BME280;62188;35.640;139.748;2023-07-22T07:59:50;101565.62;;;27.23;47.60
64115;BME280;62188;35.640;139.748;2023-07-22T08:02:15;101558.58;;;28.11;46.82
64115;BME280;62188;35.640;139.748;2023-07-22T08:04:40;101565.07;;;28.27;46.51
64115;BME280;62188;35.640;139.748;2023-07-22T08:07:07;101566.88;;;28.27;46.10
64115;BME280;62188;35.640;139.748;2023-07-22T08:09:31;101576.33;;;27.51;47.35
64115;BME280;62188;35.640;139.748;2023-07-22T08:11:57;101571.98;;;27.93;46.81
64115;BME280;62188;35.640;139.748;2023-07-22T08:14:21;101572.39;;;27.84;47.77
64115;BME280;62188;35.640;139.748;2023-07-22T08:16:47;101578.60;;;28.05;47.37
64115;BME280;62188;35.640;139.748;2023-07-22T08:19:12;101585.93;;;28.18;47.34
64115;BME280;62188;35.640;139.748;2023-07-22T08:21:37;101579.58;;;28.14;47.83
64115;BME280;62188;35.640;139.748;2023-07-22T08:24:04;101580.75;;;28.68;46.55
64115;BME280;62188;35.640;139.748;2023-07-22T08:26:28;101587.28;;;28.28;47.25
64115;BME280;62188;35.640;139.748;2023-07-22T08:28:53;101589.88;;;27.74;48.60
64115;BME280;62188;35.640;139.748;2023-07-22T08:31:18;101588.62;;;27.77;49.32
64115;BME280;62188;35.640;139.748;2023-07-22T08:33:43;101591.31;;;27.34;49.19
64115;BME280;62188;35.640;139.748;2023-07-22T08:36:09;101593.40;;;27.61;49.37
64115;BME280;62188;35.640;139.748;2023-07-22T08:38:34;101599.72;;;27.60;49.57
64115;BME280;62188;35.640;139.748;2023-07-22T08:40:59;101604.94;;;27.31;49.98
64115;BME280;62188;35.640;139.748;2023-07-22T08:43:24;101607.37;;;27.42;49.81
64115;BME280;62188;35.640;139.748;2023-07-22T08:45:52;101610.96;;;27.70;50.34
64115;BME280;62188;35.640;139.748;2023-07-22T08:48:17;101610.87;;;27.07;50.54
64115;BME280;62188;35.640;139.748;2023-07-22T08:50:45;101613.35;;;27.23;50.32
64115;BME280;62188;35.640;139.748;2023-07-22T08:53:06;101621.47;;;26.79;51.08
64115;BME280;62188;35.640;139.748;2023-07-22T08:55:31;101624.10;;;26.78;51.56
64115;BME280;62188;35.640;139.748;2023-07-22T08:57:57;101621.41;;;26.49;52.30
64115;BME280;62188;35.640;139.748;2023-07-22T09:00:22;101622.57;;;27.06;51.22
64115;BME280;62188;35.640;139.748;2023-07-22T09:02:47;101635.48;;;26.82;51.53
64115;BME280;62188;35.640;139.748;2023-07-22T09:05:12;101633.85;;;26.80;51.09
64115;BME280;62188;35.640;139.748;2023-07-22T09:07:38;101634.93;;;26.76;51.55
64115;BME280;62188;35.640;139.748;2023-07-22T09:10:03;101639.64;;;27.14;50.41
64115;BME280;62188;35.640;139.748;2023-07-22T09:12:28;101641.74;;;26.42;51.73
64115;BME280;62188;35.640;139.748;2023-07-22T09:14:54;101645.78;;;26.25;51.50
64115;BME280;62188;35.640;139.748;2023-07-22T09:17:19;101647.49;;;26.11;51.77
64115;BME280;62188;35.640;139.748;2023-07-22T09:19:44;101650.97;;;26.41;51.71
64115;BME280;62188;35.640;139.748;2023-07-22T09:22:09;101648.27;;;26.12;51.86
64115;BME280;62188;35.640;139.748;2023-07-22T09:24:35;101654.99;;;25.77;53.09
64115;BME280;62188;35.640;139.748;2023-07-22T09:27:00;101655.66;;;26.08;52.34
64115;BME280;62188;35.640;139.748;2023-07-22T09:29:33;101662.81;;;26.38;52.00
64115;BME280;62188;35.640;139.748;2023-07-22T09:31:51;101664.37;;;26.36;51.88
64115;BME280;62188;35.640;139.748;2023-07-22T09:34:16;101674.64;;;26.33;51.77
64115;BME280;62188;35.640;139.748;2023-07-22T09:36:49;101668.34;;;26.57;51.55
64115;BME280;62188;35.640;139.748;2023-07-22T09:39:06;101673.23;;;26.68;51.08
64115;BME280;62188;35.640;139.748;2023-07-22T09:41:32;101677.16;;;26.25;52.08
64115;BME280;62188;35.640;139.748;2023-07-22T09:43:57;101670.44;;;26.52;51.76
64115;BME280;62188;35.640;139.748;2023-07-22T09:46:23;101678.20;;;26.70;50.58
64115;BME280;62188;35.640;139.748;2023-07-22T09:48:48;101675.70;;;26.87;50.07
64115;BME280;62188;35.640;139.748;2023-07-22T09:51:15;101680.88;;;26.05;50.91
64115;BME280;62188;35.640;139.748;2023-07-22T09:53:38;101683.69;;;26.47;51.18
64115;BME280;62188;35.640;139.748;2023-07-22T09:56:05;101689.29;;;26.42;51.32
64115;BME280;62188;35.640;139.748;2023-07-22T09:58:31;101689.87;;;25.58;52.17
64115;BME280;62188;35.640;139.748;2023-07-22T10:00:54;101690.59;;;26.13;51.63
64115;BME280;62188;35.640;139.748;2023-07-22T10:03:20;101702.55;;;26.31;50.93
64115;BME280;62188;35.640;139.748;2023-07-22T10:05:46;101705.49;;;26.26;51.39
64115;BME280;62188;35.640;139.748;2023-07-22T10:08:11;101701.31;;;26.31;51.36
64115;BME280;62188;35.640;139.748;2023-07-22T10:10:37;101699.53;;;26.16;51.35
64115;BME280;62188;35.640;139.748;2023-07-22T10:13:02;101705.48;;;26.62;50.92
64115;BME280;62188;35.640;139.748;2023-07-22T10:15:29;101717.37;;;26.46;50.70
64115;BME280;62188;35.640;139.748;2023-07-22T10:17:52;101716.79;;;26.44;50.74
64115;BME280;62188;35.640;139.748;2023-07-22T10:20:17;101718.46;;;27.00;50.55
64115;BME280;62188;35.640;139.748;2023-07-22T10:22:45;101714.71;;;27.21;49.49
64115;BME280;62188;35.640;139.748;2023-07-22T10:25:08;101726.34;;;26.37;51.26
64115;BME280;62188;35.640;139.748;2023-07-22T10:27:34;101720.11;;;26.41;50.95
64115;BME280;62188;35.640;139.748;2023-07-22T10:29:58;101729.28;;;26.72;50.27
64115;BME280;62188;35.640;139.748;2023-07-22T10:32:23;101732.24;;;25.85;52.28
64115;BME280;62188;35.640;139.748;2023-07-22T10:34:49;101728.88;;;25.86;52.50
64115;BME280;62188;35.640;139.748;2023-07-22T10:37:14;101734.47;;;26.35;51.23
64115;BME280;62188;35.640;139.748;2023-07-22T10:39:39;101732.50;;;26.02;51.71
64115;BME280;62188;35.640;139.748;2023-07-22T10:42:05;101742.62;;;27.04;50.46
64115;BME280;62188;35.640;139.748;2023-07-22T10:44:32;101749.59;;;26.14;52.41
64115;BME280;62188;35.640;139.748;2023-07-22T10:46:59;101751.28;;;26.45;51.24
64115;BME280;62188;35.640;139.748;2023-07-22T10:49:21;101750.29;;;26.79;49.86
64115;BME280;62188;35.640;139.748;2023-07-22T10:51:49;101751.33;;;25.47;51.84
64115;BME280;62188;35.640;139.748;2023-07-22T10:54:13;101763.87;;;26.68;49.70
64115;BME280;62188;35.640;139.748;2023-07-22T10:56:37;101767.71;;;26.71;50.57
64115;BME280;62188;35.640;139.748;2023-07-22T10:59:02;101768.10;;;26.43;50.67
64115;BME280;62188;35.640;139.748;2023-07-22T11:01:32;101775.65;;;26.06;50.76
64115;BME280;62188;35.640;139.748;2023-07-22T11:04:06;101782.89;;;25.75;51.78
64115;BME280;62188;35.640;139.748;2023-07-22T11:06:19;101782.08;;;26.13;51.50
64115;BME280;62188;35.640;139.748;2023-07-22T11:08:43;101780.20;;;26.25;51.24
64115;BME280;62188;35.640;139.748;2023-07-22T11:11:08;101787.46;;;25.97;52.00
64115;BME280;62188;35.640;139.748;2023-07-22T11:13:38;101785.27;;;25.98;51.49
64115;BME280;62188;35.640;139.748;2023-07-22T11:16:00;101788.38;;;25.90;51.86
64115;BME280;62188;35.640;139.748;2023-07-22T11:20:54;101794.56;;;25.76;52.47
64115;BME280;62188;35.640;139.748;2023-07-22T11:23:14;101788.72;;;25.48;53.07
64115;BME280;62188;35.640;139.748;2023-07-22T11:25:40;101793.07;;;26.17;51.31
64115;BME280;62188;35.640;139.748;2023-07-22T11:28:05;101798.01;;;25.88;51.68
64115;BME280;62188;35.640;139.748;2023-07-22T11:30:30;101800.12;;;25.76;51.35
64115;BME280;62188;35.640;139.748;2023-07-22T11:32:59;101803.85;;;25.68;52.20
64115;BME280;62188;35.640;139.748;2023-07-22T11:35:22;101800.25;;;25.44;52.64
64115;BME280;62188;35.640;139.748;2023-07-22T11:37:46;101804.69;;;25.86;51.86
64115;BME280;62188;35.640;139.748;2023-07-22T11:40:13;101807.45;;;26.40;50.56
64115;BME280;62188;35.640;139.748;2023-07-22T11:42:36;101814.13;;;25.88;51.54
64115;BME280;62188;35.640;139.748;2023-07-22T11:45:02;101817.24;;;25.99;51.49
64115;BME280;62188;35.640;139.748;2023-07-22T11:47:30;101819.26;;;26.28;50.92
64115;BME280;62188;35.640;139.748;2023-07-22T11:49:52;101822.22;;;26.25;51.01
64115;BME280;62188;35.640;139.748;2023-07-22T11:52:18;101820.47;;;26.41;50.99
64115;BME280;62188;35.640;139.748;2023-07-22T11:54:44;101814.20;;;25.85;52.11
64115;BME280;62188;35.640;139.748;2023-07-22T11:57:13;101812.70;;;25.64;52.25
64115;BME280;62188;35.640;139.748;2023-07-22T11:59:36;101812.90;;;25.70;52.50
64115;BME280;62188;35.640;139.748;2023-07-22T12:02:01;101814.75;;;26.14;51.58
64115;BME280;62188;35.640;139.748;2023-07-22T12:04:24;101814.86;;;26.62;51.12
64115;BME280;62188;35.640;139.748;2023-07-22T12:06:49;101815.06;;;26.32;51.05
64115;BME280;62188;35.640;139.748;2023-07-22T12:09:15;101812.93;;;25.16;53.21
64115;BME280;62188;35.640;139.748;2023-07-22T12:11:40;101807.55;;;25.70;52.11
64115;BME280;62188;35.640;139.748;2023-07-22T12:14:08;101806.75;;;26.17;51.84
64115;BME280;62188;35.640;139.748;2023-07-22T12:16:30;101805.84;;;26.15;51.93
64115;BME280;62188;35.640;139.748;2023-07-22T12:18:56;101812.78;;;26.09;51.44
64115;BME280;62188;35.640;139.748;2023-07-22T12:21:21;101815.31;;;25.68;52.54